createdAt,value
2018-12-01T00:01:15.193Z,14.23
2018-12-01T00:03:42.571Z,14.15
2018-12-01T00:06:10.034Z,14.06
2018-12-01T00:08:38.078Z,13.95
2018-12-01T00:11:05.768Z,14.46
2018-12-01T00:13:33.395Z,14.12
2018-12-01T00:16:00.886Z,14.26
2018-12-01T00:18:28.596Z,14.22
2018-12-01T00:20:55.938Z,14.71
2018-12-01T00:23:23.364Z,14.61
2018-12-01T00:25:51.666Z,14.33
2018-12-01T00:28:19.080Z,14.69
2018-12-01T00:30:46.618Z,14.05
2018-12-01T00:33:14.065Z,14.28
2018-12-01T00:35:41.896Z,13.76
2018-12-01T00:38:09.282Z,14.36
2018-12-01T00:40:36.657Z,14.33
2018-12-01T00:43:04.068Z,14.03
2018-12-01T00:45:31.420Z,14.29
2018-12-01T00:47:58.872Z,13.78
2018-12-01T00:50:26.382Z,14.06
2018-12-01T00:52:53.907Z,14.09
2018-12-01T00:55:21.547Z,14.11
2018-12-01T00:57:49.142Z,14.15
2018-12-01T01:00:24.155Z,14.12
2018-12-01T01:02:54.401Z,13.93
2018-12-01T01:05:22.990Z,13.92
2018-12-01T01:07:50.465Z,14.29
2018-12-01T01:10:18.467Z,14.27
2018-12-01T01:12:46.261Z,14.22
2018-12-01T01:15:14.479Z,14.34
2018-12-01T01:17:42.043Z,13.98
2018-12-01T01:20:12.716Z,14.16
2018-12-01T01:22:40.821Z,14.35
2018-12-01T01:25:08.905Z,14.32
2018-12-01T01:27:36.467Z,14.47
2018-12-01T01:30:11.281Z,14.28
2018-12-01T01:32:38.720Z,14.14
2018-12-01T01:35:06.559Z,13.88
2018-12-01T01:37:33.922Z,14.10
2018-12-01T01:40:01.313Z,14.02
2018-12-01T01:42:28.708Z,14.15
2018-12-01T01:44:56.023Z,14.06
2018-12-01T01:47:23.528Z,14.07
2018-12-01T01:49:50.992Z,14.34
2018-12-01T01:52:18.314Z,14.28
2018-12-01T01:54:45.822Z,14.13
2018-12-01T01:57:13.642Z,14.20
2018-12-01T01:59:41.170Z,13.93
2018-12-01T02:02:08.689Z,14.10
2018-12-01T02:04:36.290Z,14.25
2018-12-01T02:07:04.039Z,14.18
2018-12-01T02:09:31.505Z,14.31
2018-12-01T02:11:58.947Z,14.28
2018-12-01T02:14:26.328Z,13.88
2018-12-01T02:16:53.727Z,14.41
2018-12-01T02:19:21.190Z,14.36
2018-12-01T02:21:48.559Z,14.28
2018-12-01T02:24:16.017Z,14.40
2018-12-01T02:26:43.491Z,14.37
2018-12-01T02:29:10.834Z,14.49
2018-12-01T02:31:38.279Z,14.30
2018-12-01T02:34:05.773Z,14.36
2018-12-01T02:36:33.210Z,14.76
2018-12-01T02:39:00.579Z,14.54
2018-12-01T02:41:27.986Z,14.45
2018-12-01T02:44:06.874Z,14.46
2018-12-01T02:46:45.704Z,14.22
2018-12-01T02:49:13.090Z,14.47
2018-12-01T02:51:40.680Z,14.37
2018-12-01T02:54:08.163Z,14.30
2018-12-01T02:56:35.714Z,14.23
2018-12-01T02:59:03.161Z,13.98
2018-12-01T03:01:30.508Z,13.83
2018-12-01T03:03:57.972Z,13.94
2018-12-01T03:06:28.238Z,14.03
2018-12-01T03:08:55.752Z,13.87
2018-12-01T03:11:23.096Z,14.08
2018-12-01T03:13:50.423Z,14.28
2018-12-01T03:16:17.836Z,13.86
2018-12-01T03:18:46.267Z,13.75
2018-12-01T03:21:13.651Z,14.07
2018-12-01T03:23:41.727Z,13.97
2018-12-01T03:26:09.037Z,13.73
2018-12-01T03:28:36.585Z,13.21
2018-12-01T03:31:04.014Z,13.67
2018-12-01T03:33:31.377Z,13.84
2018-12-01T03:35:58.883Z,13.94
2018-12-01T03:38:26.255Z,13.79
2018-12-01T03:40:53.610Z,13.51
2018-12-01T03:43:20.974Z,13.88
2018-12-01T03:45:48.522Z,14.04
2018-12-01T03:48:15.947Z,14.19
2018-12-01T03:50:43.452Z,14.07
2018-12-01T03:53:11.715Z,14.17
2018-12-01T03:55:39.167Z,14.09
2018-12-01T03:58:06.676Z,13.99
2018-12-01T04:00:34.860Z,14.04
2018-12-01T04:03:03.835Z,13.77
2018-12-01T04:05:31.565Z,13.60
2018-12-01T04:07:59.053Z,13.92
2018-12-01T04:10:26.467Z,14.00
2018-12-01T04:12:54.400Z,13.74
2018-12-01T04:15:21.791Z,13.81
2018-12-01T04:17:49.185Z,13.96
2018-12-01T04:20:16.534Z,14.24
2018-12-01T04:22:44.051Z,13.98
2018-12-01T04:25:11.591Z,13.69
2018-12-01T04:27:39.038Z,13.81
2018-12-01T04:30:15.637Z,13.89
2018-12-01T04:32:42.994Z,14.11
2018-12-01T04:35:15.168Z,14.18
2018-12-01T04:37:42.869Z,14.28
2018-12-01T04:40:10.320Z,14.39
2018-12-01T04:42:37.682Z,14.45
2018-12-01T04:45:06.354Z,14.40
2018-12-01T04:47:33.698Z,14.51
2018-12-01T04:50:01.032Z,14.28
2018-12-01T04:52:28.544Z,14.36
2018-12-01T04:54:56.000Z,14.24
2018-12-01T04:57:23.498Z,14.39
2018-12-01T04:59:50.912Z,14.51
2018-12-01T05:02:18.308Z,14.22
2018-12-01T05:04:45.986Z,14.40
2018-12-01T05:07:13.452Z,14.25
2018-12-01T05:09:40.786Z,13.94
2018-12-01T05:12:08.145Z,14.31
2018-12-01T05:14:35.514Z,14.52
2018-12-01T05:17:04.663Z,14.48
2018-12-01T05:19:32.085Z,14.50
2018-12-01T05:21:59.572Z,14.69
2018-12-01T05:24:27.006Z,14.54
2018-12-01T05:26:54.379Z,14.50
2018-12-01T05:29:21.867Z,14.67
2018-12-01T05:31:49.247Z,14.52
2018-12-01T05:34:16.767Z,14.41
2018-12-01T05:36:44.116Z,14.42
2018-12-01T05:39:11.591Z,14.39
2018-12-01T05:41:39.039Z,14.59
2018-12-01T05:44:06.379Z,14.56
2018-12-01T05:46:33.841Z,14.40
2018-12-01T05:49:01.233Z,14.46
2018-12-01T05:51:28.555Z,14.48
2018-12-01T05:53:55.931Z,14.38
2018-12-01T05:56:23.293Z,14.26
2018-12-01T05:58:50.685Z,14.53
2018-12-01T06:01:18.105Z,14.51
2018-12-01T06:03:45.718Z,14.68
2018-12-01T06:06:13.704Z,14.54
2018-12-01T06:08:41.090Z,14.70
2018-12-01T06:11:09.406Z,14.18
2018-12-01T06:13:36.805Z,14.64
2018-12-01T06:16:04.144Z,14.14
2018-12-01T06:18:31.472Z,14.20
2018-12-01T06:20:58.848Z,14.58
2018-12-01T06:23:26.160Z,14.14
2018-12-01T06:25:53.549Z,13.80
2018-12-01T06:28:20.873Z,14.27
2018-12-01T06:30:48.268Z,14.49
2018-12-01T06:33:15.611Z,14.53
2018-12-01T06:35:43.038Z,14.73
2018-12-01T06:38:10.436Z,14.58
2018-12-01T06:40:37.782Z,14.50
2018-12-01T06:43:05.641Z,14.71
2018-12-01T06:45:33.078Z,14.75
2018-12-01T06:48:00.531Z,14.46
2018-12-01T06:50:27.883Z,14.73
2018-12-01T06:52:55.225Z,14.34
2018-12-01T06:55:23.695Z,14.42
2018-12-01T06:57:51.032Z,14.44
2018-12-01T07:00:20.610Z,14.45
2018-12-01T07:02:48.339Z,14.30
2018-12-01T07:05:16.357Z,14.01
2018-12-01T07:07:44.260Z,14.33
2018-12-01T07:10:12.775Z,14.39
2018-12-01T07:12:41.602Z,14.46
2018-12-01T07:15:11.219Z,14.53
2018-12-01T07:17:38.652Z,14.50
2018-12-01T07:20:07.246Z,14.38
2018-12-01T07:22:34.574Z,14.33
2018-12-01T07:25:02.071Z,14.58
2018-12-01T07:27:29.532Z,14.69
2018-12-01T07:29:58.198Z,14.48
2018-12-01T07:32:24.336Z,14.48
2018-12-01T07:34:51.714Z,14.09
2018-12-01T07:37:19.194Z,14.44
2018-12-01T07:39:48.642Z,14.43
2018-12-01T07:42:17.004Z,14.69
2018-12-01T07:44:45.020Z,14.47
2018-12-01T07:47:12.560Z,14.61
2018-12-01T07:49:39.985Z,14.74
2018-12-01T07:52:07.353Z,14.50
2018-12-01T07:54:34.807Z,14.80
2018-12-01T07:57:02.136Z,14.42
2018-12-01T07:59:30.682Z,14.50
2018-12-01T08:01:58.046Z,14.20
2018-12-01T08:04:25.479Z,14.28
2018-12-01T08:06:52.918Z,14.79
2018-12-01T08:09:20.303Z,14.77
2018-12-01T08:11:47.718Z,14.47
2018-12-01T08:14:15.151Z,14.68
2018-12-01T08:16:42.649Z,14.53
2018-12-01T08:19:10.022Z,14.80
2018-12-01T08:21:37.409Z,14.93
2018-12-01T08:24:04.945Z,14.92
2018-12-01T08:26:32.848Z,14.62
2018-12-01T08:29:00.288Z,14.43
2018-12-01T08:31:27.655Z,14.47
2018-12-01T08:33:54.981Z,15.02
2018-12-01T08:36:22.485Z,14.66
2018-12-01T08:38:49.806Z,14.91
2018-12-01T08:41:17.176Z,14.58
2018-12-01T08:43:45.163Z,14.81
2018-12-01T08:46:12.091Z,14.48
2018-12-01T08:48:39.535Z,14.68
2018-12-01T08:51:06.932Z,14.76
2018-12-01T08:53:34.265Z,14.30
2018-12-01T08:56:01.832Z,14.80
2018-12-01T08:58:29.434Z,14.89
2018-12-01T09:00:56.949Z,14.99
2018-12-01T09:03:24.384Z,14.90
2018-12-01T09:05:52.804Z,14.71
2018-12-01T09:08:20.237Z,14.94
2018-12-01T09:10:47.679Z,14.93
2018-12-01T09:13:15.120Z,15.12
2018-12-01T09:15:42.453Z,14.79
2018-12-01T09:18:10.017Z,14.88
2018-12-01T09:20:37.409Z,15.07
2018-12-01T09:23:05.257Z,15.04
2018-12-01T09:25:32.608Z,14.96
2018-12-01T09:28:00.573Z,14.69
2018-12-01T09:30:29.453Z,14.96
2018-12-01T09:32:57.461Z,15.11
2018-12-01T09:35:24.375Z,15.53
2018-12-01T09:37:52.047Z,15.69
2018-12-01T09:40:20.603Z,15.14
2018-12-01T09:42:48.252Z,14.85
2018-12-01T09:45:16.669Z,15.26
2018-12-01T09:47:45.686Z,15.46
2018-12-01T09:50:14.160Z,14.96
2018-12-01T09:52:42.295Z,14.99
2018-12-01T09:55:12.715Z,15.16
2018-12-01T09:57:41.036Z,15.27
2018-12-01T10:00:10.454Z,15.51
2018-12-01T10:02:38.328Z,15.27
2018-12-01T10:05:07.660Z,15.62
2018-12-01T10:07:35.178Z,15.63
2018-12-01T10:10:02.675Z,15.28
2018-12-01T10:12:30.119Z,15.39
2018-12-01T10:14:57.501Z,15.27
2018-12-01T10:17:24.901Z,15.34
2018-12-01T10:19:52.425Z,15.55
2018-12-01T10:22:19.766Z,15.71
2018-12-01T10:24:47.235Z,15.65
2018-12-01T10:27:15.939Z,15.53
2018-12-01T10:29:45.041Z,14.88
2018-12-01T10:32:12.447Z,15.28
2018-12-01T10:34:39.805Z,14.99
2018-12-01T10:37:07.196Z,15.46
2018-12-01T10:39:36.632Z,15.38
2018-12-01T10:42:04.192Z,15.64
2018-12-01T10:44:31.721Z,15.57
2018-12-01T10:46:59.304Z,15.61
2018-12-01T10:49:26.661Z,15.52
2018-12-01T10:51:54.033Z,15.55
2018-12-01T10:54:21.593Z,15.94
2018-12-01T10:56:49.011Z,15.81
2018-12-01T10:59:16.391Z,15.81
2018-12-01T11:02:55.606Z,15.93
2018-12-01T11:05:20.080Z,16.17
2018-12-01T11:07:47.458Z,15.85
2018-12-01T11:10:15.168Z,16.12
2018-12-01T11:12:43.019Z,16.14
2018-12-01T11:15:10.533Z,16.49
2018-12-01T11:17:37.966Z,16.33
2018-12-01T11:20:08.162Z,16.36
2018-12-01T11:22:35.698Z,16.46
2018-12-01T11:25:04.710Z,16.82
2018-12-01T11:27:32.315Z,16.37
2018-12-01T11:29:59.672Z,16.61
2018-12-01T11:32:27.050Z,16.62
2018-12-01T11:34:54.560Z,16.33
2018-12-01T11:37:21.874Z,15.58
2018-12-01T11:39:49.347Z,15.86
2018-12-01T11:42:16.704Z,16.07
2018-12-01T11:44:44.905Z,16.15
2018-12-01T11:47:12.302Z,15.69
2018-12-01T11:49:40.333Z,15.97
2018-12-01T11:52:07.776Z,16.03
2018-12-01T11:54:35.226Z,15.97
2018-12-01T11:57:02.645Z,16.54
2018-12-01T11:59:30.128Z,15.97
2018-12-01T12:02:00.348Z,15.82
2018-12-01T12:04:25.078Z,16.55
2018-12-01T12:06:52.487Z,16.34
2018-12-01T12:09:20.873Z,16.05
2018-12-01T12:11:48.462Z,16.25
2018-12-01T12:14:15.915Z,16.84
2018-12-01T12:16:43.286Z,16.53
2018-12-01T12:19:10.685Z,16.57
2018-12-01T12:21:38.061Z,16.89
2018-12-01T12:24:05.614Z,16.67
2018-12-01T12:26:33.173Z,16.48
2018-12-01T12:29:00.515Z,16.30
2018-12-01T12:31:27.957Z,16.47
2018-12-01T12:33:55.293Z,16.44
2018-12-01T12:36:22.700Z,16.95
2018-12-01T12:38:50.140Z,16.05
2018-12-01T12:41:17.596Z,16.68
2018-12-01T12:43:44.977Z,16.54
2018-12-01T12:46:12.375Z,17.23
2018-12-01T12:48:39.705Z,17.29
2018-12-01T12:51:07.511Z,17.10
2018-12-01T12:53:34.878Z,16.82
2018-12-01T12:56:02.370Z,16.84
2018-12-01T12:58:29.882Z,16.49
2018-12-01T13:00:57.336Z,17.18
2018-12-01T13:03:24.804Z,17.24
2018-12-01T13:05:52.302Z,16.73
2018-12-01T13:08:19.922Z,16.86
2018-12-01T13:10:47.542Z,17.09
2018-12-01T13:13:14.940Z,16.83
2018-12-01T13:15:42.284Z,16.80
2018-12-01T13:18:11.192Z,16.84
2018-12-01T13:20:38.936Z,17.07
2018-12-01T13:23:07.176Z,16.52
2018-12-01T13:25:34.943Z,16.59
2018-12-01T13:28:09.764Z,16.76
2018-12-01T13:30:40.450Z,17.12
2018-12-01T13:33:07.884Z,16.24
2018-12-01T13:35:35.387Z,17.01
2018-12-01T13:38:02.847Z,16.72
2018-12-01T13:40:31.254Z,16.69
2018-12-01T13:42:58.689Z,16.65
2018-12-01T13:45:26.179Z,16.24
2018-12-01T13:47:53.649Z,16.64
2018-12-01T13:50:21.361Z,16.84
2018-12-01T13:52:54.150Z,16.49
2018-12-01T13:55:21.534Z,16.60
2018-12-01T13:57:48.961Z,16.47
2018-12-01T14:00:17.681Z,16.65
2018-12-01T14:02:45.285Z,16.29
2018-12-01T14:05:13.015Z,16.42
2018-12-01T14:07:40.505Z,16.46
2018-12-01T14:10:16.239Z,16.58
2018-12-01T14:12:45.164Z,16.38
2018-12-01T14:15:17.421Z,16.04
2018-12-01T14:17:44.920Z,16.28
2018-12-01T14:20:13.520Z,15.83
2018-12-01T14:22:41.146Z,16.31
2018-12-01T14:25:09.692Z,16.41
2018-12-01T14:27:37.640Z,16.21
2018-12-01T14:30:11.377Z,16.58
2018-12-01T14:32:38.833Z,15.99
2018-12-01T14:35:10.546Z,15.98
2018-12-01T14:37:37.986Z,15.95
2018-12-01T14:40:07.954Z,15.72
2018-12-01T14:42:35.344Z,15.42
2018-12-01T14:45:02.774Z,15.63
2018-12-01T14:47:30.164Z,15.64
2018-12-01T14:49:57.520Z,15.80
2018-12-01T14:52:24.904Z,15.74
2018-12-01T14:54:52.258Z,15.47
2018-12-01T14:57:19.628Z,15.67
2018-12-01T14:59:47.096Z,15.28
2018-12-01T15:02:14.472Z,15.33
2018-12-01T15:04:41.850Z,15.72
2018-12-01T15:07:09.273Z,15.44
2018-12-01T15:09:37.424Z,15.72
2018-12-01T15:12:06.301Z,15.45
2018-12-01T15:14:33.792Z,15.83
2018-12-01T15:17:01.150Z,15.66
2018-12-01T15:19:28.723Z,15.69
2018-12-01T15:21:56.083Z,15.62
2018-12-01T15:24:23.507Z,15.32
2018-12-01T15:26:50.968Z,15.56
2018-12-01T15:29:18.466Z,15.12
2018-12-01T15:31:46.086Z,15.22
2018-12-01T15:34:13.444Z,15.11
2018-12-01T15:36:40.904Z,15.36
2018-12-01T15:39:10.499Z,15.25
2018-12-01T15:41:37.982Z,15.35
2018-12-01T15:44:06.611Z,15.12
2018-12-01T15:46:34.212Z,15.14
2018-12-01T15:49:03.172Z,14.63
2018-12-01T15:51:29.681Z,15.05
2018-12-01T15:53:57.048Z,14.96
2018-12-01T15:56:24.555Z,14.97
2018-12-01T15:58:52.175Z,14.86
2018-12-01T16:01:19.696Z,14.82
2018-12-01T16:03:47.415Z,14.72
2018-12-01T16:06:14.818Z,14.79
2018-12-01T16:08:42.249Z,14.69
2018-12-01T16:11:09.668Z,14.82
2018-12-01T16:13:37.104Z,14.94
2018-12-01T16:16:07.359Z,15.02
2018-12-01T16:18:35.421Z,14.87
2018-12-01T16:21:02.740Z,14.79
2018-12-01T16:23:30.233Z,14.55
2018-12-01T16:25:57.699Z,14.88
2018-12-01T16:28:25.152Z,14.81
2018-12-01T16:30:52.533Z,15.08
2018-12-01T16:33:20.613Z,14.95
2018-12-01T16:35:49.761Z,14.91
2018-12-01T16:38:19.234Z,14.76
2018-12-01T16:40:56.249Z,15.03
2018-12-01T16:43:24.383Z,14.91
2018-12-01T16:45:52.359Z,14.97
2018-12-01T16:48:20.176Z,15.12
2018-12-01T16:50:47.521Z,14.78
2018-12-01T16:53:16.437Z,14.93
2018-12-01T16:55:44.104Z,14.84
2018-12-01T16:58:11.591Z,14.78
2018-12-01T17:00:39.218Z,14.93
2018-12-01T17:03:08.479Z,14.67
2018-12-01T17:05:37.474Z,14.67
2018-12-01T17:08:05.186Z,14.84
2018-12-01T17:10:32.696Z,14.87
2018-12-01T17:13:00.399Z,14.76
2018-12-01T17:15:27.794Z,14.76
2018-12-01T17:17:55.278Z,15.09
2018-12-01T17:20:22.642Z,14.82
2018-12-01T17:22:54.834Z,14.94
2018-12-01T17:25:22.278Z,14.70
2018-12-01T17:27:50.517Z,14.61
2018-12-01T17:30:19.387Z,14.72
2018-12-01T17:32:47.874Z,14.59
2018-12-01T17:35:17.454Z,14.76
2018-12-01T17:37:46.407Z,14.91
2018-12-01T17:40:17.463Z,14.79
2018-12-01T17:42:47.136Z,14.66
2018-12-01T17:45:14.545Z,14.53
2018-12-01T17:47:41.927Z,14.69
2018-12-01T17:50:15.020Z,14.63
2018-12-01T17:52:49.172Z,14.57
2018-12-01T17:55:16.923Z,14.49
2018-12-01T17:57:45.114Z,14.81
2018-12-01T18:00:16.015Z,14.86
2018-12-01T18:02:42.514Z,15.00
2018-12-01T18:05:12.768Z,14.87
2018-12-01T18:07:40.244Z,14.71
2018-12-01T18:10:10.378Z,14.98
2018-12-01T18:12:37.761Z,14.74
2018-12-01T18:15:09.037Z,14.48
2018-12-01T18:17:36.468Z,14.56
2018-12-01T18:20:04.726Z,14.48
2018-12-01T18:22:32.902Z,14.97
2018-12-01T18:25:00.455Z,14.88
2018-12-01T18:27:27.800Z,15.04
2018-12-01T18:29:55.389Z,14.89
2018-12-01T18:32:22.767Z,14.89
2018-12-01T18:34:50.139Z,15.06
2018-12-01T18:37:18.507Z,14.84
2018-12-01T18:39:45.888Z,15.11
2018-12-01T18:42:13.299Z,15.20
2018-12-01T18:44:44.038Z,14.96
2018-12-01T18:47:11.617Z,15.14
2018-12-01T18:49:39.784Z,14.92
2018-12-01T18:52:07.169Z,15.05
2018-12-01T18:54:34.611Z,14.58
2018-12-01T18:57:02.046Z,14.76
2018-12-01T18:59:29.438Z,14.84
2018-12-01T19:01:56.802Z,14.67
2018-12-01T19:04:24.197Z,14.96
2018-12-01T19:06:51.687Z,15.07
2018-12-01T19:09:19.083Z,14.99
2018-12-01T19:11:46.526Z,15.06
2018-12-01T19:14:13.978Z,14.94
2018-12-01T19:16:41.392Z,15.12
2018-12-01T19:19:08.844Z,14.97
2018-12-01T19:21:36.215Z,15.16
2018-12-01T19:24:03.731Z,15.25
2018-12-01T19:26:31.165Z,15.01
2018-12-01T19:28:58.531Z,15.12
2018-12-01T19:31:25.960Z,14.84
2018-12-01T19:33:53.373Z,15.04
2018-12-01T19:36:20.800Z,15.15
2018-12-01T19:38:48.201Z,14.84
2018-12-01T19:41:15.674Z,14.43
2018-12-01T19:43:43.066Z,14.89
2018-12-01T19:46:10.453Z,14.67
2018-12-01T19:48:37.827Z,15.11
2018-12-01T19:51:05.585Z,14.89
2018-12-01T19:53:32.992Z,15.21
2018-12-01T19:56:00.363Z,14.69
2018-12-01T19:58:28.799Z,15.09
2018-12-01T20:00:57.316Z,14.49
2018-12-01T20:03:25.890Z,14.84
2018-12-01T20:05:53.283Z,15.05
2018-12-01T20:08:21.110Z,15.34
2018-12-01T20:10:52.771Z,15.14
2018-12-01T20:13:27.764Z,15.12
2018-12-01T20:16:00.315Z,15.18
2018-12-01T20:18:28.345Z,15.42
2018-12-01T20:20:55.775Z,15.49
2018-12-01T20:23:23.164Z,15.52
2018-12-01T20:25:51.105Z,15.51
2018-12-01T20:28:18.745Z,15.47
2018-12-01T20:30:46.816Z,15.22
2018-12-01T20:33:14.534Z,15.36
2018-12-01T20:35:45.865Z,15.49
2018-12-01T20:38:21.115Z,15.52
2018-12-01T20:40:48.545Z,15.63
2018-12-01T20:43:16.016Z,15.23
2018-12-01T20:45:43.507Z,15.39
2018-12-01T20:48:12.612Z,15.43
2018-12-01T20:50:40.141Z,15.54
2018-12-01T20:53:08.010Z,15.54
2018-12-01T20:55:36.049Z,15.63
2018-12-01T20:58:05.878Z,15.52
2018-12-01T21:00:33.454Z,15.42
2018-12-01T21:03:00.866Z,15.15
2018-12-01T21:05:28.421Z,15.41
2018-12-01T21:07:55.813Z,15.34
2018-12-01T21:10:30.139Z,15.28
2018-12-01T21:12:59.074Z,15.29
2018-12-01T21:15:26.473Z,15.08
2018-12-01T21:17:53.945Z,14.95
2018-12-01T21:20:21.306Z,14.86
2018-12-01T21:22:49.919Z,14.78
2018-12-01T21:32:07.998Z,15.13
2018-12-01T21:34:35.470Z,15.09
2018-12-01T21:37:03.096Z,15.11
2018-12-01T21:39:30.429Z,15.01
2018-12-01T21:41:57.809Z,15.05
2018-12-01T21:44:25.192Z,15.03
2018-12-01T21:46:52.576Z,15.21
2018-12-01T21:49:19.926Z,15.33
2018-12-01T21:51:47.387Z,15.06
2018-12-01T21:54:14.917Z,15.30
2018-12-01T21:56:42.379Z,15.46
2018-12-01T21:59:09.795Z,15.42
2018-12-01T22:01:37.242Z,15.16
2018-12-01T22:04:04.978Z,15.52
2018-12-01T22:06:32.507Z,15.44
2018-12-01T22:08:59.802Z,15.58
2018-12-01T22:11:27.149Z,15.48
2018-12-01T22:13:54.430Z,15.40
2018-12-01T22:16:21.731Z,15.59
2018-12-01T22:18:48.958Z,15.77
2018-12-01T22:21:16.231Z,15.69
2018-12-01T22:23:43.552Z,15.65
2018-12-01T22:26:10.853Z,15.51
2018-12-01T22:28:38.162Z,15.77
2018-12-01T22:31:05.588Z,15.70
2018-12-01T22:33:32.954Z,15.42
2018-12-01T22:36:00.293Z,15.24
2018-12-01T22:38:27.581Z,15.60
2018-12-01T22:40:54.962Z,15.63
2018-12-01T22:43:22.909Z,15.73
2018-12-01T22:45:50.227Z,15.85
2018-12-01T22:48:19.210Z,15.52
2018-12-01T22:50:48.133Z,15.69
2018-12-01T22:53:15.452Z,15.37
2018-12-01T22:55:43.379Z,15.45
2018-12-01T22:58:13.333Z,15.11
2018-12-01T23:00:48.411Z,15.04
2018-12-01T23:03:15.768Z,15.09
2018-12-01T23:05:43.227Z,15.30
2018-12-01T23:08:12.241Z,15.91
2018-12-01T23:10:39.556Z,15.75
2018-12-01T23:13:07.288Z,16.07
2018-12-01T23:15:34.770Z,15.89
2018-12-01T23:18:02.114Z,15.80
2018-12-01T23:20:29.414Z,15.77
2018-12-01T23:22:56.854Z,15.65
2018-12-01T23:25:24.100Z,15.60
2018-12-01T23:27:51.520Z,15.84
2018-12-01T23:30:24.024Z,16.00
2018-12-01T23:32:55.764Z,16.00
2018-12-01T23:35:23.170Z,16.16
2018-12-01T23:37:50.570Z,15.62
2018-12-01T23:40:17.997Z,15.83
2018-12-01T23:42:45.351Z,15.55
2018-12-01T23:45:16.558Z,15.69
2018-12-01T23:47:44.607Z,15.89
2018-12-01T23:50:18.454Z,15.86
2018-12-01T23:52:47.269Z,15.57
2018-12-01T23:55:14.877Z,15.69
2018-12-01T23:57:42.514Z,15.47
